Terminal Aerodrome Forecast
Issued by NWS Charleston, WV

Home | Current Version | Previous Version | Text Only | Print | Product List | Glossary On
Versions: 1 2 3 4 5 6 7 8 9 10 11 12 13 14 15 16 17 18 19 20 21 22 23
000
FTUS41 KRLX 282322
TAFBKW
TAF
KBKW 282322Z 2900/2924 00000KT P6SM VCSH BKN045
     FM290200 00000KT P6SM BKN060
     FM291700 18005KT P6SM VCTS BKN035CB
     FM292100 18005KT 3SM -TSRA BR BKN045CB
     FM292300 17005KT 6SM BR BKN045=

USA.gov is the U.S. government's official web portal to all federal, state and local government web resources and services.